createdAt,value
2019-03-17T00:02:15.690Z,10.50
2019-03-17T00:04:43.276Z,10.50
2019-03-17T00:07:11.519Z,10.50
2019-03-17T00:09:38.988Z,10.50
2019-03-17T00:12:06.602Z,10.50
2019-03-17T00:14:34.832Z,10.40
2019-03-17T00:17:02.303Z,10.40
2019-03-17T00:19:31.287Z,10.30
2019-03-17T00:21:58.851Z,10.30
2019-03-17T00:24:26.423Z,10.30
2019-03-17T00:26:53.882Z,10.20
2019-03-17T00:29:21.446Z,10.20
2019-03-17T00:31:49.019Z,10.20
2019-03-17T00:34:16.516Z,10.20
2019-03-17T00:36:44.047Z,10.10
2019-03-17T00:39:11.603Z,10.10
2019-03-17T00:41:39.473Z,10.00
2019-03-17T00:44:07.050Z,10.10
2019-03-17T00:46:35.304Z,10.00
2019-03-17T00:49:03.685Z,10.00
2019-03-17T00:51:31.180Z,10.00
2019-03-17T00:53:59.439Z,9.90
2019-03-17T00:56:26.930Z,9.90
2019-03-17T00:58:55.166Z,9.90
2019-03-17T01:01:22.651Z,9.80
2019-03-17T01:03:50.134Z,9.80
2019-03-17T01:06:18.341Z,9.70
2019-03-17T01:08:45.842Z,9.70
2019-03-17T01:11:13.432Z,9.70
2019-03-17T01:13:41.668Z,9.60
2019-03-17T01:16:09.885Z,9.60
2019-03-17T01:18:37.349Z,9.60
2019-03-17T01:21:05.580Z,9.60
2019-03-17T01:23:33.046Z,9.60
2019-03-17T01:26:00.526Z,9.50
2019-03-17T01:28:27.981Z,9.50
2019-03-17T01:30:55.560Z,9.50
2019-03-17T01:33:23.847Z,9.50
2019-03-17T01:35:52.120Z,9.50
2019-03-17T01:38:19.691Z,9.50
2019-03-17T01:40:47.959Z,9.50
2019-03-17T01:43:15.437Z,9.40
2019-03-17T01:45:42.925Z,9.40
2019-03-17T01:48:11.217Z,9.40
2019-03-17T01:50:38.648Z,9.40
2019-03-17T01:53:06.241Z,9.40
2019-03-17T01:55:34.478Z,9.40
2019-03-17T01:58:01.959Z,9.40
2019-03-17T02:00:29.409Z,9.40
2019-03-17T02:02:56.907Z,9.40
2019-03-17T02:05:24.421Z,9.40
2019-03-17T02:07:51.882Z,9.40
2019-03-17T02:10:19.351Z,9.40
2019-03-17T02:12:46.930Z,9.40
2019-03-17T02:15:15.159Z,9.40
2019-03-17T02:17:42.661Z,9.40
2019-03-17T02:20:10.132Z,9.40
2019-03-17T02:22:38.351Z,9.40
2019-03-17T02:25:05.854Z,9.30
2019-03-17T02:27:33.325Z,9.40
2019-03-17T02:30:00.804Z,9.40
2019-03-17T02:32:29.030Z,9.40
2019-03-17T02:34:56.538Z,9.40
2019-03-17T02:37:24.008Z,9.40
2019-03-17T02:39:52.249Z,9.40
2019-03-17T02:42:19.737Z,9.30
2019-03-17T02:44:47.203Z,9.30
2019-03-17T02:47:15.432Z,9.20
2019-03-17T02:49:42.924Z,9.20
2019-03-17T02:52:10.514Z,8.80
2019-03-17T02:54:38.057Z,8.20
2019-03-17T02:57:05.628Z,8.10
2019-03-17T02:59:33.911Z,7.90
2019-03-17T03:02:02.198Z,7.90
2019-03-17T03:04:29.655Z,7.80
2019-03-17T03:06:57.885Z,7.80
2019-03-17T03:09:26.382Z,7.80
2019-03-17T03:11:53.849Z,7.80
2019-03-17T03:14:21.332Z,8.00
2019-03-17T03:16:48.808Z,7.80
2019-03-17T03:19:16.385Z,7.60
2019-03-17T03:21:43.885Z,7.70
2019-03-17T03:24:11.346Z,7.50
2019-03-17T03:26:38.825Z,7.30
2019-03-17T03:29:06.292Z,7.30
2019-03-17T03:31:33.753Z,7.30
2019-03-17T03:34:01.256Z,7.10
2019-03-17T03:36:29.478Z,7.30
2019-03-17T03:38:56.934Z,7.30
2019-03-17T03:41:24.437Z,7.30
2019-03-17T03:43:52.002Z,7.40
2019-03-17T03:46:19.488Z,7.40
2019-03-17T03:48:47.750Z,7.40
2019-03-17T03:51:15.234Z,7.30
2019-03-17T03:53:43.454Z,7.40
2019-03-17T03:56:10.930Z,7.40
2019-03-17T03:58:38.403Z,7.40
2019-03-17T04:01:05.869Z,7.30
2019-03-17T04:03:34.224Z,7.40
2019-03-17T04:06:01.690Z,7.50
2019-03-17T04:08:29.197Z,7.50
2019-03-17T04:10:57.460Z,7.20
2019-03-17T04:13:24.965Z,7.20
2019-03-17T04:15:52.448Z,7.40
2019-03-17T04:18:19.902Z,7.40
2019-03-17T04:20:47.370Z,7.50
2019-03-17T04:23:14.851Z,7.50
2019-03-17T04:25:42.377Z,7.40
2019-03-17T04:28:09.867Z,7.30
2019-03-17T04:30:37.368Z,7.30
2019-03-17T04:33:05.676Z,7.30
2019-03-17T04:35:33.878Z,7.30
2019-03-17T04:38:01.370Z,7.30
2019-03-17T04:40:28.938Z,7.20
2019-03-17T04:42:56.408Z,7.40
2019-03-17T04:45:24.733Z,7.30
2019-03-17T04:47:52.245Z,7.30
2019-03-17T04:50:19.704Z,7.30
2019-03-17T04:52:47.641Z,7.40
2019-03-17T04:55:15.111Z,7.30
2019-03-17T04:57:42.608Z,7.30
2019-03-17T05:00:10.849Z,7.30
2019-03-17T05:02:38.338Z,7.20
2019-03-17T05:05:05.817Z,7.40
2019-03-17T05:07:34.800Z,7.30
2019-03-17T05:10:02.373Z,7.30
2019-03-17T05:12:29.961Z,7.50
2019-03-17T05:14:58.225Z,7.60
2019-03-17T05:17:25.695Z,7.60
2019-03-17T05:19:53.926Z,7.60
2019-03-17T05:22:21.408Z,7.60
2019-03-17T05:24:48.875Z,7.50
2019-03-17T05:27:16.459Z,7.50
2019-03-17T05:29:43.946Z,7.60
2019-03-17T05:32:11.429Z,7.50
2019-03-17T05:34:38.908Z,7.50
2019-03-17T05:37:07.021Z,7.50
2019-03-17T05:39:33.879Z,7.50
2019-03-17T05:42:02.099Z,7.40
2019-03-17T05:44:29.572Z,7.40
2019-03-17T05:46:57.052Z,7.30
2019-03-17T05:49:24.531Z,7.30
2019-03-17T05:51:51.983Z,7.40
2019-03-17T05:54:19.546Z,7.30
2019-03-17T05:56:46.995Z,7.50
2019-03-17T05:59:14.464Z,7.50
2019-03-17T06:01:42.040Z,7.50
2019-03-17T06:04:09.499Z,7.40
2019-03-17T06:06:36.974Z,7.40
2019-03-17T06:09:04.455Z,7.50
2019-03-17T06:11:32.703Z,7.40
2019-03-17T06:14:00.283Z,7.40
2019-03-17T06:16:27.750Z,7.40
2019-03-17T06:18:56.007Z,7.50
2019-03-17T06:21:23.464Z,7.40
2019-03-17T06:23:51.030Z,7.50
2019-03-17T06:26:18.500Z,7.50
2019-03-17T06:28:47.483Z,7.50
2019-03-17T06:31:14.957Z,7.50
2019-03-17T06:33:42.431Z,7.60
2019-03-17T06:36:09.980Z,7.60
2019-03-17T06:38:37.488Z,7.70
2019-03-17T06:41:05.002Z,7.70
2019-03-17T06:43:33.693Z,6.80
2019-03-17T06:46:01.145Z,6.80
2019-03-17T06:48:28.740Z,6.70
2019-03-17T06:50:56.993Z,6.40
2019-03-17T06:53:25.877Z,6.40
2019-03-17T06:55:54.595Z,6.20
2019-03-17T06:58:23.370Z,6.10
2019-03-17T07:00:50.829Z,6.00
2019-03-17T07:03:18.309Z,6.10
2019-03-17T07:05:45.785Z,6.20
2019-03-17T07:08:13.238Z,6.30
2019-03-17T07:10:40.791Z,6.40
2019-03-17T07:13:08.274Z,6.30
2019-03-17T07:15:36.529Z,6.60
2019-03-17T07:18:04.109Z,6.60
2019-03-17T07:20:31.579Z,6.80
2019-03-17T07:22:59.797Z,6.80
2019-03-17T07:25:27.310Z,6.80
2019-03-17T07:27:54.774Z,6.80
2019-03-17T07:30:23.041Z,6.70
2019-03-17T07:32:50.624Z,6.70
2019-03-17T07:35:18.856Z,6.80
2019-03-17T07:37:56.262Z,6.80
2019-03-17T07:40:13.837Z,6.80
2019-03-17T07:42:42.062Z,7.00
2019-03-17T07:45:09.602Z,7.00
2019-03-17T07:47:37.087Z,7.00
2019-03-17T07:50:06.319Z,7.10
2019-03-17T07:52:33.871Z,7.20
2019-03-17T07:55:01.434Z,7.20
2019-03-17T07:57:28.896Z,7.40
2019-03-17T07:59:56.479Z,7.40
2019-03-17T08:02:24.075Z,7.40
2019-03-17T08:04:51.553Z,7.30
2019-03-17T08:07:19.517Z,6.90
2019-03-17T08:09:46.573Z,6.70
2019-03-17T08:12:14.031Z,6.60
2019-03-17T08:14:41.538Z,6.60
2019-03-17T08:17:09.127Z,6.50
2019-03-17T08:19:37.364Z,6.60
2019-03-17T08:22:04.873Z,6.60
2019-03-17T08:24:32.613Z,6.60
2019-03-17T08:27:00.074Z,6.60
2019-03-17T08:29:27.544Z,6.70
2019-03-17T08:31:54.997Z,7.10
2019-03-17T08:34:22.499Z,7.50
2019-03-17T08:36:50.718Z,7.50
2019-03-17T08:39:18.205Z,7.50
2019-03-17T08:41:45.656Z,7.60
2019-03-17T08:44:13.234Z,7.50
2019-03-17T08:46:40.711Z,7.80
2019-03-17T08:49:08.250Z,8.10
2019-03-17T08:51:35.942Z,8.00
2019-03-17T08:54:04.456Z,7.90
2019-03-17T08:56:31.975Z,8.10
2019-03-17T08:58:59.655Z,8.40
2019-03-17T09:01:27.886Z,8.60
2019-03-17T09:03:55.380Z,8.60
2019-03-17T09:06:22.945Z,8.20
2019-03-17T09:08:50.518Z,8.00
2019-03-17T09:11:17.981Z,7.80
2019-03-17T09:13:46.216Z,7.90
2019-03-17T09:16:13.686Z,7.90
2019-03-17T09:18:41.209Z,8.30
2019-03-17T09:21:09.422Z,8.40
2019-03-17T09:23:36.916Z,8.40
2019-03-17T09:26:05.891Z,8.80
2019-03-17T09:28:33.372Z,8.80
2019-03-17T09:31:03.824Z,8.80
2019-03-17T09:33:28.475Z,8.60
2019-03-17T09:35:55.930Z,8.60
2019-03-17T09:38:23.391Z,8.30
2019-03-17T09:40:50.860Z,8.20
2019-03-17T09:43:18.330Z,8.20
2019-03-17T09:45:45.787Z,8.30
2019-03-17T09:48:13.299Z,8.20
2019-03-17T09:50:41.590Z,8.10
2019-03-17T09:53:09.825Z,8.00
2019-03-17T09:55:37.619Z,8.00
2019-03-17T09:58:06.690Z,8.30
2019-03-17T10:00:34.274Z,8.30
2019-03-17T10:03:01.825Z,8.30
2019-03-17T10:05:29.406Z,8.20
2019-03-17T10:07:56.871Z,8.10
2019-03-17T10:10:24.422Z,8.20
2019-03-17T10:12:51.906Z,8.50
2019-03-17T10:15:20.161Z,8.60
2019-03-17T10:17:47.623Z,8.60
2019-03-17T10:20:15.075Z,8.80
2019-03-17T10:22:42.672Z,8.60
2019-03-17T10:25:10.932Z,8.70
2019-03-17T10:27:38.389Z,8.60
2019-03-17T10:30:13.875Z,8.70
2019-03-17T10:32:41.430Z,8.70
2019-03-17T10:35:09.670Z,8.60
2019-03-17T10:37:37.143Z,8.60
2019-03-17T10:40:07.445Z,8.50
2019-03-17T10:42:34.909Z,8.30
2019-03-17T10:45:02.393Z,8.60
2019-03-17T10:47:29.863Z,8.90
2019-03-17T10:49:57.410Z,9.00
2019-03-17T10:52:24.973Z,8.90
2019-03-17T10:54:52.439Z,8.90
2019-03-17T10:57:19.997Z,8.70
2019-03-17T10:59:47.468Z,8.60
2019-03-17T11:02:14.949Z,8.30
2019-03-17T11:04:42.412Z,8.50
2019-03-17T11:07:10.647Z,8.80
2019-03-17T11:09:38.132Z,8.70
2019-03-17T11:12:05.924Z,9.20
2019-03-17T11:14:34.190Z,8.90
2019-03-17T11:17:01.660Z,8.90
2019-03-17T11:19:29.202Z,9.10
2019-03-17T11:21:56.666Z,9.10
2019-03-17T11:24:24.135Z,8.90
2019-03-17T11:26:51.615Z,8.70
2019-03-17T11:29:19.842Z,9.00
2019-03-17T11:31:50.462Z,9.00
2019-03-17T11:34:17.933Z,9.10
2019-03-17T11:36:45.444Z,8.90
2019-03-17T11:39:12.909Z,9.00
2019-03-17T11:41:40.367Z,9.00
2019-03-17T11:44:08.610Z,8.80
2019-03-17T11:46:36.081Z,8.80
2019-03-17T11:49:04.661Z,9.00
2019-03-17T11:51:32.170Z,9.00
2019-03-17T11:54:00.430Z,8.80
2019-03-17T11:56:27.897Z,8.80
2019-03-17T11:58:55.408Z,8.80
2019-03-17T12:01:22.930Z,8.90
2019-03-17T12:03:51.178Z,9.30
2019-03-17T12:06:18.673Z,9.30
2019-03-17T12:08:46.906Z,9.10
2019-03-17T12:11:14.366Z,9.00
2019-03-17T12:13:41.834Z,8.90
2019-03-17T12:16:09.318Z,9.00
2019-03-17T12:18:36.859Z,8.90
2019-03-17T12:21:04.362Z,9.00
2019-03-17T12:23:31.826Z,9.40
2019-03-17T12:26:00.064Z,9.50
2019-03-17T12:28:27.560Z,9.50
2019-03-17T12:30:55.129Z,9.50
2019-03-17T12:33:22.691Z,9.70
2019-03-17T12:35:50.246Z,9.40
2019-03-17T12:38:17.798Z,9.30
2019-03-17T12:40:45.277Z,9.40
2019-03-17T12:43:13.496Z,9.50
2019-03-17T12:45:40.957Z,9.50
2019-03-17T12:48:08.474Z,9.60
2019-03-17T12:50:35.950Z,9.40
2019-03-17T12:53:04.436Z,9.90
2019-03-17T12:55:31.849Z,9.90
2019-03-17T12:58:00.002Z,9.80
2019-03-17T13:00:27.492Z,9.80
2019-03-17T13:02:54.994Z,9.90
2019-03-17T13:05:22.454Z,9.90
2019-03-17T13:07:50.020Z,10.00
2019-03-17T13:10:18.337Z,10.10
2019-03-17T13:12:45.847Z,9.80
2019-03-17T13:15:13.310Z,9.50
2019-03-17T13:17:40.780Z,9.20
2019-03-17T13:20:12.687Z,9.10
2019-03-17T13:22:40.172Z,9.00
2019-03-17T13:25:07.655Z,9.10
2019-03-17T13:27:35.132Z,9.40
2019-03-17T13:30:03.625Z,9.70
2019-03-17T13:32:31.162Z,9.60
2019-03-17T13:34:58.744Z,9.50
2019-03-17T13:37:26.195Z,9.20
2019-03-17T13:39:54.511Z,9.10
2019-03-17T13:42:22.046Z,9.20
2019-03-17T13:44:49.580Z,9.10
2019-03-17T13:47:17.071Z,9.20
2019-03-17T13:49:45.342Z,9.40
2019-03-17T13:52:12.855Z,9.40
2019-03-17T13:54:40.323Z,9.30
2019-03-17T13:57:07.779Z,9.40
2019-03-17T13:59:35.298Z,9.30
2019-03-17T14:02:02.757Z,9.40
2019-03-17T14:04:30.323Z,9.40
2019-03-17T14:06:57.907Z,9.30
2019-03-17T14:09:26.186Z,9.50
2019-03-17T14:11:54.448Z,9.40
2019-03-17T14:14:22.026Z,9.40
2019-03-17T14:16:49.498Z,9.30
2019-03-17T14:19:17.747Z,9.10
2019-03-17T14:21:46.669Z,9.10
2019-03-17T14:24:14.902Z,9.50
2019-03-17T14:26:42.385Z,9.40
2019-03-17T14:29:09.842Z,9.30
2019-03-17T14:31:37.324Z,9.20
2019-03-17T14:34:04.869Z,9.20
2019-03-17T14:36:32.338Z,9.10
2019-03-17T14:38:59.806Z,9.00
2019-03-17T14:41:28.085Z,9.20
2019-03-17T14:43:56.320Z,9.20
2019-03-17T14:46:23.781Z,9.20
2019-03-17T14:48:51.289Z,9.00
2019-03-17T14:51:18.753Z,8.90
2019-03-17T14:53:46.327Z,8.90
2019-03-17T14:56:14.565Z,9.10
2019-03-17T14:58:42.032Z,9.10
2019-03-17T15:01:09.506Z,9.30
2019-03-17T15:03:36.960Z,9.40
2019-03-17T15:06:04.416Z,9.10
2019-03-17T15:08:31.876Z,9.20
2019-03-17T15:11:05.620Z,9.00
2019-03-17T15:13:27.613Z,9.10
2019-03-17T15:16:02.666Z,9.10
2019-03-17T15:18:23.382Z,9.10
2019-03-17T15:20:50.845Z,9.10
2019-03-17T15:23:19.063Z,9.10
2019-03-17T15:25:46.575Z,9.00
2019-03-17T15:28:14.054Z,9.10
2019-03-17T15:30:41.529Z,9.00
2019-03-17T15:33:09.073Z,9.00
2019-03-17T15:35:36.560Z,9.00
2019-03-17T15:38:04.783Z,8.90
2019-03-17T15:40:32.271Z,8.90
2019-03-17T15:42:59.735Z,8.90
2019-03-17T15:45:28.740Z,9.00
2019-03-17T15:47:56.206Z,9.00
2019-03-17T15:50:27.259Z,9.00
2019-03-17T15:52:55.574Z,8.90
2019-03-17T15:55:22.971Z,8.90
2019-03-17T15:57:50.438Z,8.80
2019-03-17T16:00:24.813Z,8.90
2019-03-17T16:02:45.471Z,9.10
2019-03-17T16:05:13.034Z,9.00
2019-03-17T16:07:42.546Z,8.90
2019-03-17T16:10:17.781Z,8.90
2019-03-17T16:12:45.243Z,8.90
2019-03-17T16:15:12.762Z,9.00
2019-03-17T16:17:40.959Z,9.00
2019-03-17T16:20:09.227Z,8.90
2019-03-17T16:22:36.740Z,9.00
2019-03-17T16:25:04.218Z,8.90
2019-03-17T16:27:32.476Z,8.90
2019-03-17T16:29:59.967Z,8.90
2019-03-17T16:32:28.185Z,8.50
2019-03-17T16:34:55.654Z,8.50
2019-03-17T16:37:23.127Z,8.60
2019-03-17T16:39:50.597Z,8.50
2019-03-17T16:42:18.052Z,8.50
2019-03-17T16:44:45.620Z,8.50
2019-03-17T16:47:13.082Z,8.50
2019-03-17T16:49:40.575Z,8.40
2019-03-17T16:52:08.853Z,8.50
2019-03-17T16:54:37.107Z,8.50
2019-03-17T16:57:04.573Z,8.40
2019-03-17T16:59:33.538Z,8.40
2019-03-17T17:02:01.045Z,8.40
2019-03-17T17:04:28.559Z,8.30
2019-03-17T17:06:56.051Z,8.40
2019-03-17T17:09:24.461Z,8.30
2019-03-17T17:11:57.200Z,8.20
2019-03-17T17:14:20.987Z,8.40
2019-03-17T17:16:48.473Z,8.40
2019-03-17T17:19:16.765Z,8.40
2019-03-17T17:21:44.990Z,8.30
2019-03-17T17:24:12.481Z,8.30
2019-03-17T17:26:39.949Z,8.20
2019-03-17T17:29:08.905Z,8.30
2019-03-17T17:31:37.018Z,8.30
2019-03-17T17:34:04.485Z,8.30
2019-03-17T17:36:31.947Z,8.20
2019-03-17T17:39:00.179Z,8.20
2019-03-17T17:41:27.643Z,8.10
2019-03-17T17:43:55.102Z,8.20
2019-03-17T17:46:22.573Z,8.20
2019-03-17T17:48:50.088Z,8.20
2019-03-17T17:51:18.331Z,8.00
2019-03-17T17:53:45.811Z,8.00
2019-03-17T17:56:13.895Z,8.00
2019-03-17T17:58:41.460Z,8.00
2019-03-17T18:01:09.692Z,7.90
2019-03-17T18:03:37.153Z,7.90
2019-03-17T18:06:04.661Z,7.90
2019-03-17T18:08:33.620Z,7.80
2019-03-17T18:11:01.078Z,7.80
2019-03-17T18:13:28.575Z,7.70
2019-03-17T18:15:56.057Z,7.70
2019-03-17T18:18:24.312Z,7.70
2019-03-17T18:20:51.802Z,7.70
2019-03-17T18:23:20.082Z,7.70
2019-03-17T18:25:48.332Z,7.60
2019-03-17T18:28:15.800Z,7.60
2019-03-17T18:30:43.252Z,7.60
2019-03-17T18:33:10.741Z,7.60
2019-03-17T18:35:38.201Z,7.70
2019-03-17T18:38:06.510Z,7.60
2019-03-17T18:40:34.745Z,7.60
2019-03-17T18:43:02.216Z,7.60
2019-03-17T18:45:29.684Z,7.60
2019-03-17T18:47:57.820Z,7.50
2019-03-17T18:50:25.505Z,7.40
2019-03-17T18:52:52.967Z,7.40
2019-03-17T18:55:20.446Z,7.30
2019-03-17T18:57:47.910Z,7.40
2019-03-17T19:00:16.216Z,7.50
2019-03-17T19:02:43.690Z,7.40
2019-03-17T19:05:11.308Z,7.50
2019-03-17T19:07:38.788Z,7.30
2019-03-17T19:10:07.018Z,7.30
2019-03-17T19:12:44.893Z,7.30
2019-03-17T19:15:03.176Z,7.40
2019-03-17T19:17:31.372Z,7.50
2019-03-17T19:19:58.867Z,7.30
2019-03-17T19:22:27.120Z,7.20
2019-03-17T19:24:54.857Z,7.20
2019-03-17T19:27:22.350Z,7.40
2019-03-17T19:29:50.609Z,7.20
2019-03-17T19:32:18.135Z,7.20
2019-03-17T19:34:45.598Z,7.40
2019-03-17T19:37:13.336Z,7.30
2019-03-17T19:39:40.802Z,7.30
2019-03-17T19:42:09.032Z,7.40
2019-03-17T19:44:36.515Z,7.30
2019-03-17T19:47:04.129Z,7.20
2019-03-17T19:49:31.555Z,7.20
2019-03-17T19:51:59.007Z,7.30
2019-03-17T19:54:26.589Z,7.30
2019-03-17T19:56:54.594Z,7.30
2019-03-17T19:59:22.140Z,7.30
2019-03-17T20:01:50.393Z,7.30
2019-03-17T20:04:30.057Z,7.30
2019-03-17T20:06:46.453Z,7.20
2019-03-17T20:09:13.933Z,7.20
2019-03-17T20:11:42.210Z,7.20
2019-03-17T20:14:10.584Z,7.20
2019-03-17T20:16:38.829Z,7.30
2019-03-17T20:19:06.308Z,7.20
2019-03-17T20:21:33.814Z,7.20
2019-03-17T20:24:01.283Z,7.30
2019-03-17T20:26:28.794Z,7.10
2019-03-17T20:28:56.273Z,7.20
2019-03-17T20:31:23.825Z,7.20
2019-03-17T20:33:51.317Z,7.20
2019-03-17T20:36:19.565Z,7.10
2019-03-17T20:38:47.028Z,7.10
2019-03-17T20:41:14.491Z,7.10
2019-03-17T20:43:42.761Z,7.10
2019-03-17T20:46:10.340Z,7.00
2019-03-17T20:48:37.819Z,7.10
2019-03-17T20:51:06.080Z,7.10
2019-03-17T20:53:33.539Z,7.10
2019-03-17T20:56:01.014Z,7.10
2019-03-17T20:58:28.488Z,7.00
2019-03-17T21:00:56.738Z,7.00
2019-03-17T21:03:24.219Z,7.00
2019-03-17T21:05:51.686Z,7.00
2019-03-17T21:08:19.940Z,7.00
2019-03-17T21:10:49.874Z,6.90
2019-03-17T21:13:15.685Z,6.90
2019-03-17T21:15:43.153Z,6.90
2019-03-17T21:18:10.746Z,7.00
2019-03-17T21:20:39.013Z,7.10
2019-03-17T21:23:06.581Z,7.00
2019-03-17T21:25:34.906Z,7.00
2019-03-17T21:28:02.360Z,6.90
2019-03-17T21:30:29.870Z,7.00
2019-03-17T21:32:57.325Z,7.00
2019-03-17T21:35:24.825Z,7.00
2019-03-17T21:37:52.308Z,7.00
2019-03-17T21:40:19.775Z,7.00
2019-03-17T21:42:47.252Z,6.90
2019-03-17T21:45:15.627Z,6.90
2019-03-17T21:47:43.099Z,6.90
2019-03-17T21:50:13.221Z,6.90
2019-03-17T21:52:40.690Z,7.00
2019-03-17T21:55:08.881Z,6.90
2019-03-17T21:57:36.398Z,6.90
2019-03-17T22:00:03.906Z,7.00
2019-03-17T22:02:31.493Z,6.90
2019-03-17T22:04:59.762Z,7.00
2019-03-17T22:07:27.233Z,7.00
2019-03-17T22:09:56.064Z,7.10
2019-03-17T22:12:23.559Z,7.10
2019-03-17T22:14:51.025Z,7.10
2019-03-17T22:17:18.636Z,7.10
2019-03-17T22:19:46.095Z,7.10
2019-03-17T22:22:13.617Z,7.10
2019-03-17T22:24:41.867Z,7.10
2019-03-17T22:27:09.309Z,7.10
2019-03-17T22:29:36.807Z,7.10
2019-03-17T22:32:04.336Z,7.20
2019-03-17T22:34:31.811Z,7.20
2019-03-17T22:36:59.304Z,7.20
2019-03-17T22:39:26.828Z,7.20
2019-03-17T22:41:54.362Z,7.20
2019-03-17T22:44:25.092Z,7.20
2019-03-17T22:46:50.930Z,7.30
2019-03-17T22:49:19.168Z,7.30
2019-03-17T22:51:46.632Z,7.30
2019-03-17T22:54:14.107Z,7.30
2019-03-17T22:56:42.336Z,7.30
2019-03-17T22:59:09.855Z,7.30
2019-03-17T23:01:40.182Z,7.40
2019-03-17T23:04:07.664Z,7.30
2019-03-17T23:06:35.963Z,7.30
2019-03-17T23:09:04.431Z,7.40
2019-03-17T23:11:32.678Z,7.30
2019-03-17T23:14:00.279Z,7.30
2019-03-17T23:16:28.512Z,7.30
2019-03-17T23:18:55.997Z,7.20
2019-03-17T23:21:23.492Z,7.20
2019-03-17T23:23:51.011Z,7.00
2019-03-17T23:26:18.572Z,6.60
2019-03-17T23:28:46.848Z,6.40
2019-03-17T23:31:14.328Z,6.30
2019-03-17T23:33:41.872Z,6.30
2019-03-17T23:36:09.347Z,6.20
2019-03-17T23:38:36.909Z,6.30
2019-03-17T23:41:04.358Z,6.30
2019-03-17T23:43:31.926Z,6.30
2019-03-17T23:45:59.381Z,6.30
2019-03-17T23:48:26.934Z,6.30
2019-03-17T23:50:55.525Z,6.20
2019-03-17T23:53:23.009Z,6.20
2019-03-17T23:55:50.469Z,6.20
2019-03-17T23:58:17.973Z,6.20
